Portada
METAR-TAF:

METAR-TAF

Aeroports :

Sisseton Municipal Airport

Sisseton, Dakota del Sud, Estats Units d'Amèrica

latitud: 45-40-08N, longitud: 096-59-29W, altitud: 354 m

Observació

L'informe es va fer fa 19 minuts, a les 19:56 UTC
Vent 12 kt del Sud
Temperatura -4°C
Humitat 74%
Pressió 1024 hPa

METAR: K8D3 061956Z AUTO 18012KT M04/M08 A3024 RMK AO1 SLP271 T10441078

Hora: 14:15 (20:15 UTC)


TAF: manca

Observacions i pronòstics meteorològics de més de 4000 aeroports (METAR i TAF).

Les estacions disponibles són els punts grocs i vermells al mapa.

Posi el ratolí al punt desitjat per veure el nom de l'estació.

Feu clic per veure les observacions i els pronòstics meteorològics.

Per canviar el mapa: feu clic els botons verds amb una creu de color negre per apropar; al botó verd amb un guió per allunyar la imatge; o en les fletxes verdes per a mapes adjacents.


METAR-TAF: